sensor_id;sensor_type;location;lat;lon;timestamp;pressure;altitude;pressure_sealevel;temperature;humidity
78573;BME280;67862;0.000;0.000;2023-03-01T00:01:23;100140.66;;;21.11;61.59
78573;BME280;67862;0.000;0.000;2023-03-01T00:03:49;100138.50;;;21.13;62.00
78573;BME280;67862;0.000;0.000;2023-03-01T00:06:15;100136.03;;;21.17;61.89
78573;BME280;67862;0.000;0.000;2023-03-01T00:08:40;100136.03;;;21.17;61.55
78573;BME280;67862;0.000;0.000;2023-03-01T00:11:07;100134.69;;;21.14;61.15
78573;BME280;67862;0.000;0.000;2023-03-01T00:13:33;100135.50;;;21.15;61.36
78573;BME280;67862;0.000;0.000;2023-03-01T00:15:58;100138.78;;;21.17;61.34
78573;BME280;67862;0.000;0.000;2023-03-01T00:18:26;100138.78;;;21.17;61.15
78573;BME280;67862;0.000;0.000;2023-03-01T00:20:55;100128.94;;;21.16;61.18
78573;BME280;67862;0.000;0.000;2023-03-01T00:23:21;100141.78;;;21.15;61.41
78573;BME280;67862;0.000;0.000;2023-03-01T00:25:47;100137.97;;;21.17;61.62
78573;BME280;67862;0.000;0.000;2023-03-01T00:28:13;100139.88;;;21.21;61.46
78573;BME280;67862;0.000;0.000;2023-03-01T00:30:38;100145.06;;;21.23;61.24
78573;BME280;67862;0.000;0.000;2023-03-01T00:33:04;100142.91;;;21.25;61.52
78573;BME280;67862;0.000;0.000;2023-03-01T00:35:29;100144.53;;;21.21;61.90
78573;BME280;67862;0.000;0.000;2023-03-01T00:37:57;100141.78;;;21.21;61.89
78573;BME280;67862;0.000;0.000;2023-03-01T00:40:23;100148.97;;;21.27;61.74
78573;BME280;67862;0.000;0.000;2023-03-01T00:42:49;100139.41;;;21.29;61.52
78573;BME280;67862;0.000;0.000;2023-03-01T00:45:14;100146.22;;;21.32;61.87
78573;BME280;67862;0.000;0.000;2023-03-01T00:47:40;100137.81;;;21.33;62.04
78573;BME280;67862;0.000;0.000;2023-03-01T00:50:05;100142.72;;;21.36;62.36
78573;BME280;67862;0.000;0.000;2023-03-01T00:52:30;100144.91;;;21.39;62.25
78573;BME280;67862;0.000;0.000;2023-03-01T00:54:56;100150.69;;;21.43;62.60
78573;BME280;67862;0.000;0.000;2023-03-01T00:57:23;100142.50;;;21.48;62.37
78573;BME280;67862;0.000;0.000;2023-03-01T00:59:49;100149.88;;;21.48;62.31
78573;BME280;67862;0.000;0.000;2023-03-01T01:05:00;100142.22;;;21.50;61.80
78573;BME280;67862;0.000;0.000;2023-03-01T01:07:25;100137.56;;;21.50;62.25
78573;BME280;67862;0.000;0.000;2023-03-01T01:09:50;100129.69;;;21.54;62.57
78573;BME280;67862;0.000;0.000;2023-03-01T01:12:16;100134.06;;;21.55;62.61
78573;BME280;67862;0.000;0.000;2023-03-01T01:14:41;100137.34;;;21.57;62.50
78573;BME280;67862;0.000;0.000;2023-03-01T01:17:06;100133.22;;;21.59;62.25
78573;BME280;67862;0.000;0.000;2023-03-01T01:19:32;100124.75;;;21.61;62.55
78573;BME280;67862;0.000;0.000;2023-03-01T01:21:57;100123.94;;;21.60;62.56
78573;BME280;67862;0.000;0.000;2023-03-01T01:24:23;100118.47;;;21.60;62.38
78573;BME280;67862;0.000;0.000;2023-03-01T01:26:48;100123.69;;;21.62;62.27
78573;BME280;67862;0.000;0.000;2023-03-01T01:29:13;100117.16;;;21.63;62.04
78573;BME280;67862;0.000;0.000;2023-03-01T01:31:39;100107.84;;;21.64;61.82
78573;BME280;67862;0.000;0.000;2023-03-01T01:34:06;100106.22;;;21.63;62.23
78573;BME280;67862;0.000;0.000;2023-03-01T01:36:32;100108.41;;;21.66;61.91
78573;BME280;67862;0.000;0.000;2023-03-01T01:38:58;100108.94;;;21.68;62.28
78573;BME280;67862;0.000;0.000;2023-03-01T01:41:24;100102.13;;;21.65;62.25
78573;BME280;67862;0.000;0.000;2023-03-01T01:44:09;100101.28;;;21.65;62.40
78573;BME280;67862;0.000;0.000;2023-03-01T01:46:36;100095.28;;;21.68;62.59
78573;BME280;67862;0.000;0.000;2023-03-01T01:49:07;100098.00;;;21.68;62.63
78573;BME280;67862;0.000;0.000;2023-03-01T01:51:37;100090.34;;;21.70;62.46
78573;BME280;67862;0.000;0.000;2023-03-01T01:54:47;100095.31;;;21.73;62.80
78573;BME280;67862;0.000;0.000;2023-03-01T01:56:55;100090.66;;;21.74;62.72
78573;BME280;67862;0.000;0.000;2023-03-01T01:59:23;100083.28;;;21.74;62.87
78573;BME280;67862;0.000;0.000;2023-03-01T02:01:49;100080.00;;;21.77;62.40
78573;BME280;67862;0.000;0.000;2023-03-01T02:04:15;100073.16;;;21.80;62.95
78573;BME280;67862;0.000;0.000;2023-03-01T02:06:41;100072.06;;;21.81;63.01
78573;BME280;67862;0.000;0.000;2023-03-01T02:09:14;100069.34;;;21.81;63.14
78573;BME280;67862;0.000;0.000;2023-03-01T02:11:40;100073.16;;;21.80;63.29
78573;BME280;67862;0.000;0.000;2023-03-01T02:14:06;100065.53;;;21.82;63.48
78573;BME280;67862;0.000;0.000;2023-03-01T02:16:31;100072.06;;;21.81;63.42
78573;BME280;67862;0.000;0.000;2023-03-01T02:18:57;100063.63;;;21.82;63.61
78573;BME280;67862;0.000;0.000;2023-03-01T02:23:52;100066.34;;;21.82;63.98
78573;BME280;67862;0.000;0.000;2023-03-01T02:28:43;100064.97;;;21.85;63.80
78573;BME280;67862;0.000;0.000;2023-03-01T02:31:10;100065.78;;;21.85;64.05
78573;BME280;67862;0.000;0.000;2023-03-01T02:33:58;100057.59;;;21.85;63.98
78573;BME280;67862;0.000;0.000;2023-03-01T02:36:28;100055.69;;;21.86;63.87
78573;BME280;67862;0.000;0.000;2023-03-01T02:38:55;100053.22;;;21.84;63.99
78573;BME280;67862;0.000;0.000;2023-03-01T02:41:22;100043.94;;;21.85;63.49
78573;BME280;67862;0.000;0.000;2023-03-01T02:43:48;100040.91;;;21.87;63.81
78573;BME280;67862;0.000;0.000;2023-03-01T02:46:15;100039.56;;;21.89;63.66
78573;BME280;67862;0.000;0.000;2023-03-01T02:48:43;100040.91;;;21.87;63.79
78573;BME280;67862;0.000;0.000;2023-03-01T02:53:55;100029.72;;;21.83;63.37
78573;BME280;67862;0.000;0.000;2023-03-01T02:56:22;100029.16;;;21.86;63.15
78573;BME280;67862;0.000;0.000;2023-03-01T02:58:47;100024.53;;;21.87;63.54
78573;BME280;67862;0.000;0.000;2023-03-01T03:01:17;100030.00;;;21.87;63.07
78573;BME280;67862;0.000;0.000;2023-03-01T03:03:43;100020.97;;;21.86;63.25
78573;BME280;67862;0.000;0.000;2023-03-01T03:06:09;100024.78;;;21.85;62.90
78573;BME280;67862;0.000;0.000;2023-03-01T03:08:37;100035.47;;;21.87;62.98
78573;BME280;67862;0.000;0.000;2023-03-01T03:11:02;100045.56;;;21.86;62.88
78573;BME280;67862;0.000;0.000;2023-03-01T03:13:28;100033.53;;;21.87;62.83
78573;BME280;67862;0.000;0.000;2023-03-01T03:15:56;100039.84;;;21.83;63.00
78573;BME280;67862;0.000;0.000;2023-03-01T03:18:22;100038.47;;;21.85;62.53
78573;BME280;67862;0.000;0.000;2023-03-01T03:20:51;100040.38;;;21.85;62.63
78573;BME280;67862;0.000;0.000;2023-03-01T03:23:18;100036.28;;;21.87;62.64
78573;BME280;67862;0.000;0.000;2023-03-01T03:25:44;100034.63;;;21.86;62.70
78573;BME280;67862;0.000;0.000;2023-03-01T03:28:12;100033.81;;;21.86;62.93
78573;BME280;67862;0.000;0.000;2023-03-01T03:30:38;100035.47;;;21.87;62.72
78573;BME280;67862;0.000;0.000;2023-03-01T03:33:08;100035.72;;;21.85;62.62
78573;BME280;67862;0.000;0.000;2023-03-01T03:35:37;100042.84;;;21.86;62.93
78573;BME280;67862;0.000;0.000;2023-03-01T03:38:04;100051.56;;;21.88;62.93
78573;BME280;67862;0.000;0.000;2023-03-01T03:40:41;100045.84;;;21.90;62.54
78573;BME280;67862;0.000;0.000;2023-03-01T03:43:12;100048.03;;;21.88;62.94
78573;BME280;67862;0.000;0.000;2023-03-01T03:45:38;100044.75;;;21.86;62.45
78573;BME280;67862;0.000;0.000;2023-03-01T03:48:05;100045.84;;;21.85;62.81
78573;BME280;67862;0.000;0.000;2023-03-01T03:50:31;100042.56;;;21.88;63.10
78573;BME280;67862;0.000;0.000;2023-03-01T03:52:56;100033.25;;;21.89;62.76
78573;BME280;67862;0.000;0.000;2023-03-01T03:55:22;100034.91;;;21.90;62.85
78573;BME280;67862;0.000;0.000;2023-03-01T03:57:47;100028.91;;;21.88;63.13
78573;BME280;67862;0.000;0.000;2023-03-01T04:00:18;100030.81;;;21.87;62.85
78573;BME280;67862;0.000;0.000;2023-03-01T04:02:47;100033.00;;;21.85;62.85
78573;BME280;67862;0.000;0.000;2023-03-01T04:05:14;100030.53;;;21.89;62.42
78573;BME280;67862;0.000;0.000;2023-03-01T04:07:40;100031.91;;;21.86;62.70
78573;BME280;67862;0.000;0.000;2023-03-01T04:10:06;100031.91;;;21.86;62.24
78573;BME280;67862;0.000;0.000;2023-03-01T04:12:33;100033.00;;;21.85;62.32
78573;BME280;67862;0.000;0.000;2023-03-01T04:15:05;100029.72;;;21.83;62.44
78573;BME280;67862;0.000;0.000;2023-03-01T04:17:43;100030.81;;;21.82;62.64
78573;BME280;67862;0.000;0.000;2023-03-01T04:20:09;100037.63;;;21.75;62.36
78573;BME280;67862;0.000;0.000;2023-03-01T04:22:36;100034.59;;;21.71;62.03
78573;BME280;67862;0.000;0.000;2023-03-01T04:25:01;100038.72;;;21.68;61.27
78573;BME280;67862;0.000;0.000;2023-03-01T04:27:27;100034.91;;;21.64;61.70
78573;BME280;67862;0.000;0.000;2023-03-01T04:29:52;100033.81;;;21.65;61.85
78573;BME280;67862;0.000;0.000;2023-03-01T04:32:18;100031.34;;;21.64;61.60
78573;BME280;67862;0.000;0.000;2023-03-01T04:34:43;100032.16;;;21.64;61.16
78573;BME280;67862;0.000;0.000;2023-03-01T04:37:09;100029.72;;;21.63;61.32
78573;BME280;67862;0.000;0.000;2023-03-01T04:39:34;100026.97;;;21.63;61.26
78573;BME280;67862;0.000;0.000;2023-03-01T04:42:10;100028.06;;;21.62;61.01
78573;BME280;67862;0.000;0.000;2023-03-01T04:44:36;100026.16;;;21.62;61.65
78573;BME280;67862;0.000;0.000;2023-03-01T04:47:04;100024.25;;;21.63;61.02
78573;BME280;67862;0.000;0.000;2023-03-01T04:49:30;100023.16;;;21.64;61.45
78573;BME280;67862;0.000;0.000;2023-03-01T04:51:56;100022.34;;;21.63;61.19
78573;BME280;67862;0.000;0.000;2023-03-01T04:54:23;100019.88;;;21.62;61.41
78573;BME280;67862;0.000;0.000;2023-03-01T04:56:49;100011.09;;;21.60;61.41
78573;BME280;67862;0.000;0.000;2023-03-01T04:59:14;100015.47;;;21.61;61.57
78573;BME280;67862;0.000;0.000;2023-03-01T05:01:39;100013.84;;;21.60;61.96
78573;BME280;67862;0.000;0.000;2023-03-01T05:04:08;100020.41;;;21.59;61.39
78573;BME280;67862;0.000;0.000;2023-03-01T05:06:38;100014.66;;;21.60;61.69
78573;BME280;67862;0.000;0.000;2023-03-01T05:09:04;100017.66;;;21.59;61.85
78573;BME280;67862;0.000;0.000;2023-03-01T05:11:30;100012.19;;;21.59;61.70
78573;BME280;67862;0.000;0.000;2023-03-01T05:13:58;100012.19;;;21.59;61.79
78573;BME280;67862;0.000;0.000;2023-03-01T05:16:27;100014.38;;;21.57;61.93
78573;BME280;67862;0.000;0.000;2023-03-01T05:18:52;100017.66;;;21.59;61.71
78573;BME280;67862;0.000;0.000;2023-03-01T05:21:20;100017.66;;;21.59;61.90
78573;BME280;67862;0.000;0.000;2023-03-01T05:23:46;100018.75;;;21.58;61.87
78573;BME280;67862;0.000;0.000;2023-03-01T05:26:12;100023.41;;;21.57;61.51
78573;BME280;67862;0.000;0.000;2023-03-01T05:28:37;100029.97;;;21.56;61.56
78573;BME280;67862;0.000;0.000;2023-03-01T05:31:04;100023.13;;;21.59;61.59
78573;BME280;67862;0.000;0.000;2023-03-01T05:33:38;100027.22;;;21.56;61.80
78573;BME280;67862;0.000;0.000;2023-03-01T05:36:09;100020.94;;;21.56;61.77
78573;BME280;67862;0.000;0.000;2023-03-01T05:38:37;100029.97;;;21.56;61.49
78573;BME280;67862;0.000;0.000;2023-03-01T05:41:03;100029.16;;;21.56;61.89
78573;BME280;67862;0.000;0.000;2023-03-01T05:43:31;100029.16;;;21.56;62.06
78573;BME280;67862;0.000;0.000;2023-03-01T05:45:59;100032.16;;;21.54;61.62
78573;BME280;67862;0.000;0.000;2023-03-01T05:48:25;100033.50;;;21.57;61.78
78573;BME280;67862;0.000;0.000;2023-03-01T05:50:51;100032.16;;;21.54;61.28
78573;BME280;67862;0.000;0.000;2023-03-01T05:53:16;100032.94;;;21.50;60.93
78573;BME280;67862;0.000;0.000;2023-03-01T05:55:43;100034.59;;;21.51;60.89
78573;BME280;67862;0.000;0.000;2023-03-01T05:58:12;100034.84;;;21.49;60.80
78573;BME280;67862;0.000;0.000;2023-03-01T06:00:39;100036.78;;;21.49;60.76
78573;BME280;67862;0.000;0.000;2023-03-01T06:03:09;100041.56;;;21.21;59.05
78573;BME280;67862;0.000;0.000;2023-03-01T06:05:35;100040.03;;;19.98;58.92
78573;BME280;67862;0.000;0.000;2023-03-01T06:08:00;100046.88;;;19.74;58.59
78573;BME280;67862;0.000;0.000;2023-03-01T06:10:26;100041.00;;;20.19;61.43
78573;BME280;67862;0.000;0.000;2023-03-01T06:12:51;100037.31;;;20.83;60.10
78573;BME280;67862;0.000;0.000;2023-03-01T06:15:16;100039.34;;;21.13;59.04
78573;BME280;67862;0.000;0.000;2023-03-01T06:17:43;100039.66;;;21.22;58.71
78573;BME280;67862;0.000;0.000;2023-03-01T06:20:17;100052.81;;;21.25;58.58
78573;BME280;67862;0.000;0.000;2023-03-01T06:22:43;100047.09;;;21.26;58.41
78573;BME280;67862;0.000;0.000;2023-03-01T06:25:09;100039.16;;;21.25;57.26
78573;BME280;67862;0.000;0.000;2023-03-01T06:27:35;100046.53;;;21.24;58.04
78573;BME280;67862;0.000;0.000;2023-03-01T06:30:00;100044.63;;;21.25;57.79
78573;BME280;67862;0.000;0.000;2023-03-01T06:32:26;100045.41;;;21.20;57.39
78573;BME280;67862;0.000;0.000;2023-03-01T06:34:51;100047.03;;;21.16;57.44
78573;BME280;67862;0.000;0.000;2023-03-01T06:37:17;100044.84;;;21.18;57.79
78573;BME280;67862;0.000;0.000;2023-03-01T06:39:42;100048.94;;;21.15;57.38
78573;BME280;67862;0.000;0.000;2023-03-01T06:42:08;100050.28;;;21.13;57.13
78573;BME280;67862;0.000;0.000;2023-03-01T06:44:35;100050.56;;;21.11;57.09
78573;BME280;67862;0.000;0.000;2023-03-01T06:47:01;100047.03;;;21.16;56.82
78573;BME280;67862;0.000;0.000;2023-03-01T06:49:26;100055.22;;;21.16;56.99
78573;BME280;67862;0.000;0.000;2023-03-01T06:51:52;100048.69;;;21.17;57.21
78573;BME280;67862;0.000;0.000;2023-03-01T06:54:17;100048.94;;;21.15;57.57
78573;BME280;67862;0.000;0.000;2023-03-01T06:56:43;100054.13;;;21.17;57.70
78573;BME280;67862;0.000;0.000;2023-03-01T06:59:08;100050.59;;;21.17;57.03
78573;BME280;67862;0.000;0.000;2023-03-01T07:01:33;100055.50;;;21.14;57.06
78573;BME280;67862;0.000;0.000;2023-03-01T07:03:59;100053.00;;;21.13;57.46
78573;BME280;67862;0.000;0.000;2023-03-01T07:06:24;100053.28;;;21.11;57.72
78573;BME280;67862;0.000;0.000;2023-03-01T07:08:49;100053.84;;;21.13;57.78
78573;BME280;67862;0.000;0.000;2023-03-01T07:11:15;100049.75;;;21.16;57.65
78573;BME280;67862;0.000;0.000;2023-03-01T07:13:40;100056.31;;;21.15;57.20
78573;BME280;67862;0.000;0.000;2023-03-01T07:16:06;100053.84;;;21.13;57.13
78573;BME280;67862;0.000;0.000;2023-03-01T07:18:31;100052.47;;;21.11;57.67
78573;BME280;67862;0.000;0.000;2023-03-01T07:20:57;100047.34;;;20.67;52.89
78573;BME280;67862;0.000;0.000;2023-03-01T07:23:22;100060.72;;;20.69;56.42
78573;BME280;67862;0.000;0.000;2023-03-01T07:25:51;100055.34;;;20.84;57.05
78573;BME280;67862;0.000;0.000;2023-03-01T07:28:17;100048.28;;;20.93;55.97
78573;BME280;67862;0.000;0.000;2023-03-01T07:30:43;100046.97;;;21.01;55.69
78573;BME280;67862;0.000;0.000;2023-03-01T07:33:08;100050.00;;;21.04;55.64
78573;BME280;67862;0.000;0.000;2023-03-01T07:35:33;100048.59;;;21.02;55.83
78573;BME280;67862;0.000;0.000;2023-03-01T07:37:59;100050.81;;;21.05;55.92
78573;BME280;67862;0.000;0.000;2023-03-01T07:40:24;100054.63;;;21.04;56.38
78573;BME280;67862;0.000;0.000;2023-03-01T07:42:54;100055.19;;;21.06;56.20
78573;BME280;67862;0.000;0.000;2023-03-01T07:45:19;100057.09;;;21.05;56.05
78573;BME280;67862;0.000;0.000;2023-03-01T07:47:45;100049.19;;;21.04;56.47
78573;BME280;67862;0.000;0.000;2023-03-01T07:50:10;100045.09;;;21.06;56.44
78573;BME280;67862;0.000;0.000;2023-03-01T07:52:36;100045.34;;;21.05;56.16
78573;BME280;67862;0.000;0.000;2023-03-01T07:55:01;100047.28;;;21.04;56.27
78573;BME280;67862;0.000;0.000;2023-03-01T07:57:26;100039.31;;;21.03;56.17
78573;BME280;67862;0.000;0.000;2023-03-01T07:59:52;100041.00;;;21.04;56.37
78573;BME280;67862;0.000;0.000;2023-03-01T08:02:17;100038.25;;;21.04;56.28
78573;BME280;67862;0.000;0.000;2023-03-01T08:04:43;100037.72;;;21.07;56.50
78573;BME280;67862;0.000;0.000;2023-03-01T08:07:08;100042.06;;;21.03;56.30
78573;BME280;67862;0.000;0.000;2023-03-01T08:09:34;100043.41;;;21.00;56.37
78573;BME280;67862;0.000;0.000;2023-03-01T08:12:01;100038.25;;;21.04;56.09
78573;BME280;67862;0.000;0.000;2023-03-01T08:14:26;100042.31;;;21.01;56.37
78573;BME280;67862;0.000;0.000;2023-03-01T08:16:54;100033.31;;;21.01;56.57
78573;BME280;67862;0.000;0.000;2023-03-01T08:19:20;100030.59;;;21.01;56.41
78573;BME280;67862;0.000;0.000;2023-03-01T08:21:45;100029.50;;;21.02;55.84
78573;BME280;67862;0.000;0.000;2023-03-01T08:24:11;100028.94;;;21.00;55.68
78573;BME280;67862;0.000;0.000;2023-03-01T08:26:36;100028.41;;;21.03;56.19
78573;BME280;67862;0.000;0.000;2023-03-01T08:29:02;100023.22;;;21.01;56.03
78573;BME280;67862;0.000;0.000;2023-03-01T08:31:29;100028.16;;;21.04;55.39
78573;BME280;67862;0.000;0.000;2023-03-01T08:33:56;100023.53;;;21.10;55.83
78573;BME280;67862;0.000;0.000;2023-03-01T08:36:32;100022.69;;;21.04;56.03
78573;BME280;67862;0.000;0.000;2023-03-01T08:38:58;100024.63;;;21.09;55.51
78573;BME280;67862;0.000;0.000;2023-03-01T08:41:23;100025.44;;;21.09;55.35
78573;BME280;67862;0.000;0.000;2023-03-01T08:43:49;100027.34;;;21.09;55.54
78573;BME280;67862;0.000;0.000;2023-03-01T08:46:14;100026.25;;;21.10;55.51
78573;BME280;67862;0.000;0.000;2023-03-01T08:48:40;100023.25;;;21.11;55.27
78573;BME280;67862;0.000;0.000;2023-03-01T08:51:15;100022.97;;;21.13;55.00
78573;BME280;67862;0.000;0.000;2023-03-01T08:53:41;100021.91;;;21.14;55.14
78573;BME280;67862;0.000;0.000;2023-03-01T08:56:06;100018.06;;;21.10;55.36
78573;BME280;67862;0.000;0.000;2023-03-01T08:58:32;100015.09;;;21.17;55.18
78573;BME280;67862;0.000;0.000;2023-03-01T09:00:57;100012.63;;;21.20;54.92
78573;BME280;67862;0.000;0.000;2023-03-01T09:03:23;100005.81;;;21.23;54.75
78573;BME280;67862;0.000;0.000;2023-03-01T09:05:49;100012.66;;;21.25;55.14
78573;BME280;67862;0.000;0.000;2023-03-01T09:08:16;100006.69;;;21.28;55.05
78573;BME280;67862;0.000;0.000;2023-03-01T09:10:41;100003.94;;;21.28;54.47
78573;BME280;67862;0.000;0.000;2023-03-01T09:13:07;100004.50;;;21.30;54.72
78573;BME280;67862;0.000;0.000;2023-03-01T09:15:32;100006.94;;;21.32;54.65
78573;BME280;67862;0.000;0.000;2023-03-01T09:17:58;100006.44;;;21.35;54.74
78573;BME280;67862;0.000;0.000;2023-03-01T09:20:24;100002.06;;;21.34;54.65
78573;BME280;67862;0.000;0.000;2023-03-01T09:22:49;99990.31;;;21.33;55.03
78573;BME280;67862;0.000;0.000;2023-03-01T09:25:14;99987.84;;;21.37;54.64
78573;BME280;67862;0.000;0.000;2023-03-01T09:27:40;99984.31;;;21.36;54.78
78573;BME280;67862;0.000;0.000;2023-03-01T09:30:05;99988.13;;;21.40;54.63
78573;BME280;67862;0.000;0.000;2023-03-01T09:32:31;99982.13;;;21.38;54.36
78573;BME280;67862;0.000;0.000;2023-03-01T09:34:57;99976.66;;;21.38;54.74
78573;BME280;67862;0.000;0.000;2023-03-01T09:37:34;99968.72;;;21.42;54.36
78573;BME280;67862;0.000;0.000;2023-03-01T09:40:00;99964.38;;;21.41;54.49
78573;BME280;67862;0.000;0.000;2023-03-01T09:42:27;99970.66;;;21.41;54.67
78573;BME280;67862;0.000;0.000;2023-03-01T09:47:20;99959.47;;;21.43;54.35
78573;BME280;67862;0.000;0.000;2023-03-01T09:49:52;99954.81;;;21.43;54.31
78573;BME280;67862;0.000;0.000;2023-03-01T09:55:24;99968.47;;;21.49;54.29
78573;BME280;67862;0.000;0.000;2023-03-01T09:57:53;99959.75;;;21.47;54.60
78573;BME280;67862;0.000;0.000;2023-03-01T10:02:56;99957.00;;;21.52;54.05
78573;BME280;67862;0.000;0.000;2023-03-01T10:05:27;99967.94;;;21.52;54.31
78573;BME280;67862;0.000;0.000;2023-03-01T10:08:00;99960.31;;;21.54;54.07
78573;BME280;67862;0.000;0.000;2023-03-01T10:10:34;99955.09;;;21.57;54.22
78573;BME280;67862;0.000;0.000;2023-03-01T10:13:13;99945.53;;;21.55;54.25
78573;BME280;67862;0.000;0.000;2023-03-01T10:16:23;99942.53;;;21.56;54.12
78573;BME280;67862;0.000;0.000;2023-03-01T10:18:29;99940.34;;;21.58;54.19
78573;BME280;67862;0.000;0.000;2023-03-01T10:21:02;99939.25;;;21.59;53.76
78573;BME280;67862;0.000;0.000;2023-03-01T10:23:30;99933.78;;;21.59;53.46
78573;BME280;67862;0.000;0.000;2023-03-01T10:26:02;99937.34;;;21.60;53.86
78573;BME280;67862;0.000;0.000;2023-03-01T10:31:15;99922.06;;;21.64;54.14
78573;BME280;67862;0.000;0.000;2023-03-01T10:33:43;99927.50;;;21.64;53.89
78573;BME280;67862;0.000;0.000;2023-03-01T10:36:09;99924.50;;;21.65;53.58
78573;BME280;67862;0.000;0.000;2023-03-01T10:38:48;99918.22;;;21.65;53.61
78573;BME280;67862;0.000;0.000;2023-03-01T10:41:14;99921.22;;;21.68;53.49
78573;BME280;67862;0.000;0.000;2023-03-01T10:43:44;99909.19;;;21.69;53.96
78573;BME280;67862;0.000;0.000;2023-03-01T10:51:39;99900.72;;;21.71;53.24
78573;BME280;67862;0.000;0.000;2023-03-01T10:54:05;99902.63;;;21.76;53.58
78573;BME280;67862;0.000;0.000;2023-03-01T10:56:37;99894.16;;;21.77;53.61
78573;BME280;67862;0.000;0.000;2023-03-01T10:59:18;99886.78;;;21.78;53.53
78573;BME280;67862;0.000;0.000;2023-03-01T11:01:45;99886.25;;;21.76;53.37
78573;BME280;67862;0.000;0.000;2023-03-01T11:04:12;99884.56;;;21.80;53.51
78573;BME280;67862;0.000;0.000;2023-03-01T11:06:38;99883.47;;;21.81;53.23
78573;BME280;67862;0.000;0.000;2023-03-01T11:09:14;99894.16;;;21.82;53.36
78573;BME280;67862;0.000;0.000;2023-03-01T11:11:40;99885.41;;;21.85;53.33
78573;BME280;67862;0.000;0.000;2023-03-01T11:14:14;99871.44;;;21.87;53.50
78573;BME280;67862;0.000;0.000;2023-03-01T11:16:41;99869.25;;;21.89;53.10
78573;BME280;67862;0.000;0.000;2023-03-01T11:21:58;99876.94;;;21.92;53.24
78573;BME280;67862;0.000;0.000;2023-03-01T11:24:22;99865.44;;;21.95;53.30
78573;BME280;67862;0.000;0.000;2023-03-01T11:26:53;99861.88;;;21.94;53.37
78573;BME280;67862;0.000;0.000;2023-03-01T11:29:26;99862.41;;;21.96;52.77
78573;BME280;67862;0.000;0.000;2023-03-01T11:31:53;99857.47;;;21.98;53.00
78573;BME280;67862;0.000;0.000;2023-03-01T11:34:24;99857.47;;;22.04;52.61
78573;BME280;67862;0.000;0.000;2023-03-01T11:36:56;99855.28;;;22.06;52.79
78573;BME280;67862;0.000;0.000;2023-03-01T11:44:36;99856.94;;;22.12;52.80
78573;BME280;67862;0.000;0.000;2023-03-01T12:00:37;99841.84;;;22.19;52.38
78573;BME280;67862;0.000;0.000;2023-03-01T12:11:47;99824.09;;;22.22;52.77
78573;BME280;67862;0.000;0.000;2023-03-01T12:33:02;99807.34;;;22.28;52.75
78573;BME280;67862;0.000;0.000;2023-03-01T12:38:04;99806.00;;;22.31;52.25
78573;BME280;67862;0.000;0.000;2023-03-01T12:43:21;99794.47;;;22.34;52.37
78573;BME280;67862;0.000;0.000;2023-03-01T12:45:54;99792.56;;;22.35;52.18
78573;BME280;67862;0.000;0.000;2023-03-01T12:48:32;99789.00;;;22.34;52.57
78573;BME280;67862;0.000;0.000;2023-03-01T12:51:03;99789.53;;;22.36;52.56
78573;BME280;67862;0.000;0.000;2023-03-01T12:53:32;99781.34;;;22.36;52.55
78573;BME280;67862;0.000;0.000;2023-03-01T12:56:07;99781.88;;;22.38;52.26
78573;BME280;67862;0.000;0.000;2023-03-01T13:03:31;99778.06;;;22.39;52.44
78573;BME280;67862;0.000;0.000;2023-03-01T13:08:28;99775.84;;;22.41;52.34
78573;BME280;67862;0.000;0.000;2023-03-01T13:11:04;99768.47;;;22.42;52.33
78573;BME280;67862;0.000;0.000;2023-03-01T13:13:31;99774.75;;;22.42;51.99
78573;BME280;67862;0.000;0.000;2023-03-01T13:15:56;99762.16;;;22.41;52.00
78573;BME280;67862;0.000;0.000;2023-03-01T13:20:52;99773.63;;;22.43;51.99
78573;BME280;67862;0.000;0.000;2023-03-01T13:31:05;99756.97;;;22.40;52.23
78573;BME280;67862;0.000;0.000;2023-03-01T13:35:58;99754.78;;;22.42;51.84
78573;BME280;67862;0.000;0.000;2023-03-01T13:38:37;99753.97;;;22.41;52.17
78573;BME280;67862;0.000;0.000;2023-03-01T13:41:03;99751.22;;;22.41;51.65
78573;BME280;67862;0.000;0.000;2023-03-01T13:43:34;99750.94;;;22.43;51.68
78573;BME280;67862;0.000;0.000;2023-03-01T13:46:01;99745.19;;;22.44;51.58
78573;BME280;67862;0.000;0.000;2023-03-01T13:48:27;99740.00;;;22.43;51.72
78573;BME280;67862;0.000;0.000;2023-03-01T13:50:56;99740.53;;;22.45;51.62
78573;BME280;67862;0.000;0.000;2023-03-01T13:53:23;99728.75;;;22.44;51.45
78573;BME280;67862;0.000;0.000;2023-03-01T13:55:51;99728.75;;;22.44;51.41
78573;BME280;67862;0.000;0.000;2023-03-01T14:00:57;99731.78;;;22.43;51.46
78573;BME280;67862;0.000;0.000;2023-03-01T14:03:23;99724.09;;;22.45;51.51
78573;BME280;67862;0.000;0.000;2023-03-01T14:08:34;99709.91;;;22.43;51.53
78573;BME280;67862;0.000;0.000;2023-03-01T14:17:14;99700.59;;;22.44;51.45
78573;BME280;67862;0.000;0.000;2023-03-01T14:19:18;99703.31;;;22.44;51.21
78573;BME280;67862;0.000;0.000;2023-03-01T14:21:46;99697.03;;;22.43;51.08
78573;BME280;67862;0.000;0.000;2023-03-01T14:24:16;99691.28;;;22.45;51.33
78573;BME280;67862;0.000;0.000;2023-03-01T14:26:42;99696.22;;;22.43;51.12
78573;BME280;67862;0.000;0.000;2023-03-01T14:29:22;99688.84;;;22.43;51.34
78573;BME280;67862;0.000;0.000;2023-03-01T14:31:48;99686.91;;;22.44;51.31
78573;BME280;67862;0.000;0.000;2023-03-01T14:34:20;99679.53;;;22.44;50.97
78573;BME280;67862;0.000;0.000;2023-03-01T14:36:46;99675.97;;;22.44;51.25
78573;BME280;67862;0.000;0.000;2023-03-01T14:39:18;99677.91;;;22.43;51.07
78573;BME280;67862;0.000;0.000;2023-03-01T14:41:47;99675.16;;;22.43;51.30
78573;BME280;67862;0.000;0.000;2023-03-01T14:44:14;99670.50;;;22.44;51.07
78573;BME280;67862;0.000;0.000;2023-03-01T14:46:42;99666.94;;;22.43;51.00
78573;BME280;67862;0.000;0.000;2023-03-01T14:49:13;99663.41;;;22.43;50.94
78573;BME280;67862;0.000;0.000;2023-03-01T14:51:40;99667.53;;;22.40;51.16
78573;BME280;67862;0.000;0.000;2023-03-01T14:54:26;99665.59;;;22.41;51.09
78573;BME280;67862;0.000;0.000;2023-03-01T14:56:53;99664.78;;;22.40;50.93